createdAt,value
2019-04-10T00:00:10.642Z,5.00
2019-04-10T00:02:37.641Z,4.69
2019-04-10T00:05:06.343Z,4.69
2019-04-10T00:07:32.971Z,4.87
2019-04-10T00:09:59.294Z,4.87
2019-04-10T00:12:25.486Z,5.00
2019-04-10T00:14:52.496Z,5.06
2019-04-10T00:17:18.593Z,4.94
2019-04-10T00:19:45.523Z,5.12
2019-04-10T00:22:11.719Z,5.25
2019-04-10T00:24:37.890Z,5.00
2019-04-10T00:27:04.116Z,4.87
2019-04-10T00:29:30.272Z,5.12
2019-04-10T00:31:56.411Z,5.06
2019-04-10T00:34:23.298Z,5.19
2019-04-10T00:36:49.244Z,4.94
2019-04-10T00:39:15.156Z,5.06
2019-04-10T00:41:41.025Z,4.69
2019-04-10T00:44:07.754Z,4.37
2019-04-10T00:46:34.648Z,4.62
2019-04-10T00:49:00.721Z,4.81
2019-04-10T00:51:27.420Z,5.06
2019-04-10T00:53:53.869Z,4.81
2019-04-10T00:56:20.757Z,4.69
2019-04-10T00:58:47.805Z,4.87
2019-04-10T01:01:13.921Z,4.81
2019-04-10T01:03:43.026Z,4.50
2019-04-10T01:06:11.272Z,4.75
2019-04-10T01:08:37.464Z,4.69
2019-04-10T01:11:03.316Z,4.75
2019-04-10T01:13:29.314Z,4.69
2019-04-10T01:15:55.243Z,4.62
2019-04-10T01:18:21.383Z,4.62
2019-04-10T01:20:48.075Z,4.87
2019-04-10T01:23:14.045Z,4.69
2019-04-10T01:25:40.869Z,4.69
2019-04-10T01:28:06.866Z,4.69
2019-04-10T01:30:32.832Z,4.44
2019-04-10T01:32:58.744Z,4.62
2019-04-10T01:35:24.621Z,4.56
2019-04-10T01:37:56.176Z,4.62
2019-04-10T01:40:19.143Z,4.25
2019-04-10T01:42:59.971Z,4.37
2019-04-10T01:45:13.840Z,4.56
2019-04-10T01:47:39.780Z,4.69
2019-04-10T01:50:06.377Z,4.44
2019-04-10T01:52:33.221Z,4.50
2019-04-10T01:54:59.778Z,4.31
2019-04-10T01:57:25.727Z,4.25
2019-04-10T01:59:51.740Z,4.19
2019-04-10T02:02:19.591Z,4.19
2019-04-10T02:04:45.545Z,4.37
2019-04-10T02:07:11.402Z,4.25
2019-04-10T02:09:37.255Z,4.06
2019-04-10T02:12:04.012Z,4.44
2019-04-10T02:14:30.102Z,4.37
2019-04-10T02:16:56.970Z,4.19
2019-04-10T02:19:23.871Z,3.94
2019-04-10T02:21:49.831Z,3.69
2019-04-10T02:24:16.636Z,3.37
2019-04-10T02:26:43.465Z,3.87
2019-04-10T02:29:09.363Z,3.81
2019-04-10T02:31:36.581Z,3.87
2019-04-10T02:34:04.608Z,4.00
2019-04-10T02:36:31.554Z,4.00
2019-04-10T02:39:10.147Z,3.94
2019-04-10T02:41:25.614Z,3.75
2019-04-10T02:43:51.572Z,3.75
2019-04-10T02:46:17.541Z,3.37
2019-04-10T02:48:43.480Z,3.75
2019-04-10T02:51:09.783Z,3.25
2019-04-10T02:53:37.397Z,3.87
2019-04-10T02:56:05.246Z,3.62
2019-04-10T02:58:32.240Z,3.75
2019-04-10T03:00:59.079Z,3.25
2019-04-10T03:03:25.479Z,3.56
2019-04-10T03:05:51.584Z,3.75
2019-04-10T03:08:17.534Z,3.31
2019-04-10T03:10:49.553Z,3.37
2019-04-10T03:13:11.747Z,3.69
2019-04-10T03:15:39.233Z,3.87
2019-04-10T03:18:06.366Z,3.87
2019-04-10T03:20:32.549Z,3.62
2019-04-10T03:22:58.813Z,3.50
2019-04-10T03:25:24.779Z,3.69
2019-04-10T03:27:50.626Z,3.56
2019-04-10T03:30:18.383Z,4.00
2019-04-10T03:32:51.585Z,4.06
2019-04-10T03:35:18.757Z,4.19
2019-04-10T03:37:44.705Z,3.87
2019-04-10T03:40:11.206Z,3.87
2019-04-10T03:42:37.314Z,3.87
2019-04-10T03:45:05.554Z,4.00
2019-04-10T03:47:31.669Z,3.81
2019-04-10T03:49:58.253Z,4.06
2019-04-10T03:52:25.266Z,4.25
2019-04-10T03:54:52.308Z,4.25
2019-04-10T03:57:18.474Z,4.25
2019-04-10T03:59:45.418Z,4.25
2019-04-10T04:02:11.681Z,4.31
2019-04-10T04:04:37.754Z,4.06
2019-04-10T04:07:03.636Z,4.25
2019-04-10T04:09:29.491Z,4.44
2019-04-10T04:11:57.883Z,4.19
2019-04-10T04:14:24.191Z,4.12
2019-04-10T04:16:51.159Z,4.31
2019-04-10T04:19:17.697Z,4.50
2019-04-10T04:21:43.985Z,4.25
2019-04-10T04:24:09.943Z,4.37
2019-04-10T04:26:35.795Z,4.44
2019-04-10T04:29:02.022Z,4.25
2019-04-10T04:31:29.072Z,4.12
2019-04-10T04:33:55.589Z,4.37
2019-04-10T04:36:21.513Z,4.50
2019-04-10T04:38:47.453Z,4.44
2019-04-10T04:41:13.372Z,4.25
2019-04-10T04:43:41.920Z,4.44
2019-04-10T04:46:07.921Z,4.56
2019-04-10T04:48:34.286Z,4.25
2019-04-10T04:51:01.195Z,4.56
2019-04-10T04:53:27.985Z,4.37
2019-04-10T04:55:53.919Z,4.44
2019-04-10T04:58:20.292Z,4.50
2019-04-10T05:00:46.251Z,4.69
2019-04-10T05:03:12.147Z,4.37
2019-04-10T05:05:39.053Z,4.44
2019-04-10T05:08:05.908Z,4.69
2019-04-10T05:10:33.546Z,4.56
2019-04-10T05:12:59.931Z,4.62
2019-04-10T05:15:26.900Z,4.44
2019-04-10T05:17:53.525Z,4.44
2019-04-10T05:20:19.663Z,4.31
2019-04-10T05:22:45.707Z,4.44
2019-04-10T05:25:11.610Z,4.50
2019-04-10T05:27:37.572Z,4.56
2019-04-10T05:30:06.211Z,4.50
2019-04-10T05:32:32.944Z,4.62
2019-04-10T05:34:59.129Z,4.62
2019-04-10T05:37:25.133Z,4.31
2019-04-10T05:39:52.335Z,4.81
2019-04-10T05:42:18.859Z,4.50
2019-04-10T05:44:44.798Z,4.75
2019-04-10T05:47:11.677Z,4.81
2019-04-10T05:49:37.775Z,4.81
2019-04-10T05:52:04.220Z,4.56
2019-04-10T05:54:31.137Z,4.87
2019-04-10T05:56:57.100Z,4.81
2019-04-10T05:59:23.891Z,5.12
2019-04-10T06:01:50.546Z,4.94
2019-04-10T06:04:16.906Z,4.75
2019-04-10T06:06:44.250Z,5.12
2019-04-10T06:09:10.257Z,5.06
2019-04-10T06:11:37.256Z,4.81
2019-04-10T06:14:03.506Z,4.81
2019-04-10T06:16:30.300Z,5.06
2019-04-10T06:18:57.561Z,5.06
2019-04-10T06:21:23.592Z,5.12
2019-04-10T06:23:49.869Z,5.25
2019-04-10T06:26:16.995Z,5.06
2019-04-10T06:28:43.195Z,4.94
2019-04-10T06:31:09.270Z,5.12
2019-04-10T06:33:36.085Z,5.31
2019-04-10T06:36:02.863Z,5.31
2019-04-10T06:38:29.043Z,5.50
2019-04-10T06:40:54.961Z,5.69
2019-04-10T06:43:22.195Z,5.50
2019-04-10T06:45:48.515Z,5.31
2019-04-10T06:48:15.059Z,5.50
2019-04-10T06:50:41.260Z,5.56
2019-04-10T06:53:08.237Z,5.31
2019-04-10T06:55:34.397Z,5.62
2019-04-10T06:58:00.912Z,5.44
2019-04-10T07:00:26.920Z,5.50
2019-04-10T07:02:52.805Z,5.62
2019-04-10T07:05:19.792Z,5.81
2019-04-10T07:07:51.977Z,5.62
2019-04-10T07:10:22.446Z,5.87
2019-04-10T07:12:41.729Z,5.87
2019-04-10T07:15:08.485Z,5.75
2019-04-10T07:17:37.548Z,6.00
2019-04-10T07:20:05.203Z,6.06
2019-04-10T07:22:31.180Z,6.12
2019-04-10T07:24:57.164Z,5.87
2019-04-10T07:27:23.661Z,5.87
2019-04-10T07:29:52.307Z,5.56
2019-04-10T07:32:18.396Z,5.87
2019-04-10T07:34:45.190Z,5.94
2019-04-10T07:37:14.656Z,5.94
2019-04-10T07:39:39.558Z,5.94
2019-04-10T07:42:06.201Z,5.81
2019-04-10T07:44:34.898Z,6.12
2019-04-10T07:47:00.940Z,6.06
2019-04-10T07:49:30.768Z,6.44
2019-04-10T07:51:54.599Z,6.19
2019-04-10T07:54:21.311Z,6.37
2019-04-10T07:56:49.387Z,6.25
2019-04-10T07:59:16.678Z,6.62
2019-04-10T08:01:43.725Z,6.87
2019-04-10T08:04:10.469Z,6.44
2019-04-10T08:06:37.418Z,6.62
2019-04-10T08:09:06.370Z,6.69
2019-04-10T08:11:32.287Z,6.62
2019-04-10T08:13:58.173Z,6.87
2019-04-10T08:16:25.248Z,6.75
2019-04-10T08:18:52.134Z,6.81
2019-04-10T08:21:18.161Z,7.19
2019-04-10T08:23:44.564Z,7.06
2019-04-10T08:26:10.730Z,7.06
2019-04-10T08:28:36.964Z,7.12
2019-04-10T08:31:02.984Z,7.06
2019-04-10T08:33:30.127Z,6.81
2019-04-10T08:35:56.863Z,7.44
2019-04-10T08:38:24.009Z,7.44
2019-04-10T08:40:50.199Z,7.31
2019-04-10T08:43:16.058Z,7.31
2019-04-10T08:45:49.526Z,7.50
2019-04-10T08:48:10.890Z,7.56
2019-04-10T08:50:36.817Z,7.81
2019-04-10T08:53:02.720Z,7.56
2019-04-10T08:55:28.608Z,7.62
2019-04-10T08:57:54.979Z,7.37
2019-04-10T09:00:21.144Z,7.62
2019-04-10T09:02:47.003Z,7.62
2019-04-10T09:05:13.276Z,7.62
2019-04-10T09:07:40.088Z,7.31
2019-04-10T09:10:06.503Z,7.69
2019-04-10T09:12:32.388Z,7.94
2019-04-10T09:14:59.714Z,7.69
2019-04-10T09:17:25.551Z,8.06
2019-04-10T09:19:52.123Z,7.81
2019-04-10T09:22:18.098Z,7.44
2019-04-10T09:24:44.630Z,7.94
2019-04-10T09:27:10.974Z,7.69
2019-04-10T09:29:36.933Z,7.69
2019-04-10T09:32:02.949Z,7.81
2019-04-10T09:34:28.909Z,8.06
2019-04-10T09:36:54.827Z,8.19
2019-04-10T09:39:20.704Z,7.75
2019-04-10T09:41:47.222Z,7.87
2019-04-10T09:44:14.348Z,8.00
2019-04-10T09:46:40.829Z,8.19
2019-04-10T09:49:07.009Z,8.63
2019-04-10T09:51:34.111Z,8.25
2019-04-10T09:54:00.241Z,8.38
2019-04-10T09:56:26.183Z,8.44
2019-04-10T09:58:53.969Z,8.25
2019-04-10T10:01:19.992Z,8.13
2019-04-10T10:03:45.915Z,8.63
2019-04-10T10:06:23.222Z,8.19
2019-04-10T10:08:39.524Z,7.94
2019-04-10T10:11:06.126Z,8.25
2019-04-10T10:13:32.274Z,8.50
2019-04-10T10:15:58.740Z,8.63
2019-04-10T10:18:27.712Z,8.56
2019-04-10T10:20:54.295Z,8.44
2019-04-10T10:23:20.307Z,8.50
2019-04-10T10:25:46.398Z,8.38
2019-04-10T10:28:13.189Z,8.50
2019-04-10T10:30:39.756Z,8.81
2019-04-10T10:33:05.707Z,8.81
2019-04-10T10:35:31.562Z,8.69
2019-04-10T10:37:57.457Z,8.75
2019-04-10T10:40:25.582Z,8.56
2019-04-10T10:42:51.931Z,8.81
2019-04-10T10:45:18.629Z,8.81
2019-04-10T10:47:44.686Z,8.50
2019-04-10T10:50:13.006Z,8.69
2019-04-10T10:52:44.178Z,8.81
2019-04-10T10:55:10.125Z,8.94
2019-04-10T10:57:37.344Z,8.63
2019-04-10T11:00:08.191Z,8.38
2019-04-10T11:02:35.801Z,8.63
2019-04-10T11:05:04.986Z,8.56
2019-04-10T11:07:31.021Z,8.88
2019-04-10T11:09:58.591Z,8.75
2019-04-10T11:12:24.701Z,8.88
2019-04-10T11:14:52.298Z,8.44
2019-04-10T11:17:18.396Z,8.75
2019-04-10T11:19:45.544Z,8.94
2019-04-10T11:22:14.075Z,8.75
2019-04-10T11:24:41.283Z,8.81
2019-04-10T11:27:09.999Z,8.69
2019-04-10T11:29:37.685Z,9.13
2019-04-10T11:32:04.257Z,8.81
2019-04-10T11:34:30.596Z,8.63
2019-04-10T11:37:16.530Z,8.44
2019-04-10T11:39:28.563Z,8.63
2019-04-10T11:41:55.135Z,8.63
2019-04-10T11:44:21.634Z,8.63
2019-04-10T11:46:49.230Z,9.06
2019-04-10T11:49:15.945Z,9.13
2019-04-10T11:51:45.322Z,9.06
2019-04-10T11:54:14.585Z,8.94
2019-04-10T11:56:38.907Z,8.56
2019-04-10T11:59:07.600Z,8.56
2019-04-10T12:01:34.242Z,8.88
2019-04-10T12:04:00.469Z,8.56
2019-04-10T12:06:30.925Z,8.56
2019-04-10T12:09:19.539Z,8.63
2019-04-10T12:11:25.695Z,8.63
2019-04-10T12:13:51.771Z,8.63
2019-04-10T12:16:17.822Z,8.56
2019-04-10T12:18:43.773Z,8.50
2019-04-10T12:21:09.698Z,8.56
2019-04-10T12:23:36.801Z,8.88
2019-04-10T12:26:03.354Z,8.81
2019-04-10T12:28:29.873Z,8.88
2019-04-10T12:30:55.829Z,8.88
2019-04-10T12:33:21.679Z,8.81
2019-04-10T12:35:47.810Z,8.75
2019-04-10T12:38:13.692Z,9.00
2019-04-10T12:40:40.508Z,9.13
2019-04-10T12:43:06.554Z,9.00
2019-04-10T12:45:32.666Z,8.81
2019-04-10T12:47:58.637Z,8.75
2019-04-10T12:50:24.774Z,8.81
2019-04-10T12:52:51.284Z,8.81
2019-04-10T12:55:17.172Z,8.75
2019-04-10T12:57:43.457Z,8.63
2019-04-10T13:00:11.786Z,8.81
2019-04-10T13:02:38.640Z,9.00
2019-04-10T13:05:07.702Z,9.19
2019-04-10T13:07:33.931Z,9.25
2019-04-10T13:09:59.958Z,9.25
2019-04-10T13:12:26.483Z,9.38
2019-04-10T13:14:52.858Z,9.44
2019-04-10T13:17:20.274Z,9.81
2019-04-10T13:19:46.342Z,9.63
2019-04-10T13:22:12.268Z,9.81
2019-04-10T13:24:38.158Z,9.88
2019-04-10T13:27:04.286Z,9.69
2019-04-10T13:29:30.151Z,9.69
2019-04-10T13:31:56.160Z,9.31
2019-04-10T13:34:25.036Z,9.25
2019-04-10T13:36:51.578Z,9.19
2019-04-10T13:39:18.969Z,9.25
2019-04-10T13:41:48.426Z,9.56
2019-04-10T13:44:14.398Z,9.00
2019-04-10T13:46:40.686Z,9.13
2019-04-10T13:49:06.750Z,9.13
2019-04-10T13:51:32.646Z,9.06
2019-04-10T13:53:58.594Z,9.13
2019-04-10T13:56:25.346Z,9.25
2019-04-10T13:58:51.290Z,9.00
2019-04-10T14:01:19.635Z,9.06
2019-04-10T14:03:46.897Z,9.31
2019-04-10T14:06:13.683Z,9.13
2019-04-10T14:08:58.628Z,9.50
2019-04-10T14:11:08.993Z,9.31
2019-04-10T14:13:35.945Z,9.31
2019-04-10T14:16:01.808Z,9.31
2019-04-10T14:18:27.667Z,9.31
2019-04-10T14:20:53.595Z,9.19
2019-04-10T14:23:22.281Z,9.38
2019-04-10T14:25:56.418Z,9.38
2019-04-10T14:28:24.922Z,9.25
2019-04-10T14:30:51.591Z,9.13
2019-04-10T14:33:17.567Z,9.44
2019-04-10T14:35:45.385Z,9.56
2019-04-10T14:38:14.900Z,9.38
2019-04-10T14:40:41.290Z,9.69
2019-04-10T14:43:07.547Z,9.50
2019-04-10T14:45:35.338Z,9.56
2019-04-10T14:48:01.320Z,9.69
2019-04-10T14:50:27.611Z,9.44
2019-04-10T14:52:53.796Z,9.69
2019-04-10T14:55:22.060Z,9.63
2019-04-10T14:57:48.201Z,9.75
2019-04-10T15:00:16.826Z,9.44
2019-04-10T15:02:43.087Z,9.69
2019-04-10T15:05:10.062Z,9.06
2019-04-10T15:07:37.198Z,9.25
2019-04-10T15:10:04.256Z,9.00
2019-04-10T15:12:30.223Z,8.94
2019-04-10T15:14:56.271Z,8.75
2019-04-10T15:17:23.115Z,8.88
2019-04-10T15:19:50.630Z,8.50
2019-04-10T15:22:17.819Z,8.56
2019-04-10T15:24:45.007Z,8.75
2019-04-10T15:27:11.175Z,8.94
2019-04-10T15:29:37.195Z,8.69
2019-04-10T15:32:04.161Z,8.56
2019-04-10T15:34:30.306Z,8.81
2019-04-10T15:36:56.455Z,8.81
2019-04-10T15:39:32.366Z,8.88
2019-04-10T15:41:51.837Z,8.81
2019-04-10T15:44:18.292Z,8.56
2019-04-10T15:46:44.237Z,8.56
2019-04-10T15:49:11.102Z,8.63
2019-04-10T15:51:37.111Z,8.56
2019-04-10T15:54:03.002Z,8.81
2019-04-10T15:56:29.802Z,8.81
2019-04-10T15:58:56.841Z,8.88
2019-04-10T16:01:28.149Z,8.81
2019-04-10T16:03:53.413Z,8.69
2019-04-10T16:06:19.309Z,8.75
2019-04-10T16:08:45.179Z,8.56
2019-04-10T16:11:21.963Z,8.50
2019-04-10T16:13:49.996Z,8.56
2019-04-10T16:16:17.746Z,8.63
2019-04-10T16:18:44.320Z,8.44
2019-04-10T16:21:10.389Z,8.63
2019-04-10T16:23:38.294Z,8.63
2019-04-10T16:26:06.972Z,8.69
2019-04-10T16:28:33.547Z,8.63
2019-04-10T16:31:01.407Z,8.75
2019-04-10T16:33:27.400Z,8.81
2019-04-10T16:35:53.269Z,8.69
2019-04-10T16:38:19.115Z,8.63
2019-04-10T16:40:45.913Z,8.75
2019-04-10T16:43:13.945Z,8.63
2019-04-10T16:45:42.966Z,8.44
2019-04-10T16:48:08.810Z,8.63
2019-04-10T16:50:34.824Z,8.56
2019-04-10T16:53:01.320Z,8.44
2019-04-10T16:55:27.308Z,8.19
2019-04-10T16:57:53.491Z,8.19
2019-04-10T17:00:21.024Z,8.44
2019-04-10T17:02:48.524Z,8.38
2019-04-10T17:05:14.561Z,8.31
2019-04-10T17:07:41.249Z,8.31
2019-04-10T17:10:15.980Z,8.13
2019-04-10T17:12:35.922Z,8.38
2019-04-10T17:15:06.195Z,8.13
2019-04-10T17:17:32.572Z,8.25
2019-04-10T17:19:59.502Z,8.44
2019-04-10T17:22:32.358Z,8.56
2019-04-10T17:24:54.032Z,8.31
2019-04-10T17:27:19.874Z,8.44
2019-04-10T17:29:47.252Z,8.38
2019-04-10T17:32:15.412Z,8.13
2019-04-10T17:34:41.332Z,7.87
2019-04-10T17:37:07.574Z,8.13
2019-04-10T17:39:33.564Z,8.06
2019-04-10T17:41:59.905Z,8.06
2019-04-10T17:44:26.067Z,8.06
2019-04-10T17:46:51.952Z,8.06
2019-04-10T17:49:19.149Z,8.06
2019-04-10T17:51:45.944Z,7.87
2019-04-10T17:54:13.800Z,7.87
2019-04-10T17:56:40.176Z,8.00
2019-04-10T17:59:06.203Z,7.81
2019-04-10T18:01:32.773Z,7.75
2019-04-10T18:04:01.825Z,7.87
2019-04-10T18:06:27.688Z,7.75
2019-04-10T18:08:53.675Z,7.62
2019-04-10T18:11:22.382Z,7.94
2019-04-10T18:13:49.182Z,7.69
2019-04-10T18:16:15.149Z,7.87
2019-04-10T18:18:42.045Z,7.75
2019-04-10T18:21:08.627Z,7.81
2019-04-10T18:23:35.605Z,7.87
2019-04-10T18:26:02.497Z,7.75
2019-04-10T18:28:30.937Z,7.69
2019-04-10T18:30:56.554Z,7.75
2019-04-10T18:33:22.624Z,7.62
2019-04-10T18:35:49.085Z,7.81
2019-04-10T18:38:17.403Z,7.56
2019-04-10T18:40:53.106Z,7.56
2019-04-10T18:43:11.870Z,7.50
2019-04-10T18:45:40.534Z,7.75
2019-04-10T18:48:06.252Z,7.44
2019-04-10T18:50:32.288Z,7.31
2019-04-10T18:52:59.348Z,7.25
2019-04-10T18:55:25.823Z,7.50
2019-04-10T18:57:51.680Z,7.50
2019-04-10T19:00:28.535Z,7.19
2019-04-10T19:03:09.525Z,7.31
2019-04-10T19:05:38.351Z,7.25
2019-04-10T19:08:05.063Z,7.12
2019-04-10T19:10:31.190Z,7.12
2019-04-10T19:12:57.313Z,7.31
2019-04-10T19:15:24.419Z,6.94
2019-04-10T19:17:50.962Z,7.00
2019-04-10T19:20:17.982Z,6.87
2019-04-10T19:22:44.681Z,6.87
2019-04-10T19:25:16.513Z,6.87
2019-04-10T19:27:44.452Z,6.69
2019-04-10T19:30:15.275Z,6.75
2019-04-10T19:32:43.732Z,6.62
2019-04-10T19:35:10.753Z,6.75
2019-04-10T19:37:45.799Z,6.75
2019-04-10T19:40:12.230Z,6.75
2019-04-10T19:42:41.782Z,6.75
2019-04-10T19:45:10.360Z,6.69
2019-04-10T19:47:36.767Z,6.87
2019-04-10T19:50:05.370Z,6.56
2019-04-10T19:52:31.447Z,6.69
2019-04-10T19:54:59.611Z,6.69
2019-04-10T19:57:25.628Z,6.75
2019-04-10T19:59:52.292Z,6.87
2019-04-10T20:02:19.065Z,6.75
2019-04-10T20:04:45.175Z,6.62
2019-04-10T20:07:11.186Z,6.56
2019-04-10T20:09:37.169Z,6.56
2019-04-10T20:12:04.326Z,6.50
2019-04-10T20:14:30.585Z,6.56
2019-04-10T20:16:57.643Z,6.81
2019-04-10T20:19:24.597Z,6.50
2019-04-10T20:21:50.530Z,6.56
2019-04-10T20:24:16.651Z,6.56
2019-04-10T20:26:43.390Z,6.62
2019-04-10T20:29:10.924Z,6.56
2019-04-10T20:31:37.643Z,6.44
2019-04-10T20:34:03.903Z,6.50
2019-04-10T20:36:31.053Z,6.50
2019-04-10T20:38:57.210Z,6.62
2019-04-10T20:41:23.142Z,6.69
2019-04-10T20:43:49.091Z,6.56
2019-04-10T20:46:15.022Z,6.50
2019-04-10T20:48:40.863Z,6.50
2019-04-10T20:51:06.793Z,6.31
2019-04-10T20:53:33.611Z,6.62
2019-04-10T20:56:01.973Z,6.75
2019-04-10T20:58:27.956Z,6.81
2019-04-10T21:00:54.765Z,6.50
2019-04-10T21:03:20.708Z,6.12
2019-04-10T21:05:46.626Z,6.31
2019-04-10T21:08:13.640Z,6.19
2019-04-10T21:10:40.868Z,6.19
2019-04-10T21:13:07.000Z,6.06
2019-04-10T21:15:33.427Z,6.12
2019-04-10T21:17:59.433Z,6.00
2019-04-10T21:20:26.123Z,5.94
2019-04-10T21:22:53.449Z,6.12
2019-04-10T21:25:19.411Z,6.00
2019-04-10T21:27:48.474Z,6.25
2019-04-10T21:30:15.726Z,5.81
2019-04-10T21:32:43.830Z,5.87
2019-04-10T21:35:15.877Z,5.81
2019-04-10T21:37:42.450Z,5.94
2019-04-10T21:40:08.675Z,5.94
2019-04-10T21:42:34.529Z,5.94
2019-04-10T21:45:00.422Z,5.81
2019-04-10T21:47:26.323Z,5.81
2019-04-10T21:49:53.309Z,5.75
2019-04-10T21:52:19.324Z,5.81
2019-04-10T21:54:51.206Z,5.81
2019-04-10T21:57:14.020Z,5.81
2019-04-10T21:59:39.876Z,5.81
2019-04-10T22:02:06.829Z,5.75
2019-04-10T22:04:32.947Z,5.81
2019-04-10T22:07:03.608Z,5.94
2019-04-10T22:09:47.409Z,5.75
2019-04-10T22:12:25.646Z,5.87
2019-04-10T22:14:46.059Z,5.81
2019-04-10T22:17:12.992Z,5.81
2019-04-10T22:19:39.562Z,5.62
2019-04-10T22:22:06.292Z,5.75
2019-04-10T22:24:32.379Z,5.69
2019-04-10T22:26:58.624Z,5.56
2019-04-10T22:29:28.261Z,5.56
2019-04-10T22:31:54.226Z,5.69
2019-04-10T22:34:21.289Z,5.75
2019-04-10T22:36:47.411Z,5.62
2019-04-10T22:39:16.671Z,5.56
2019-04-10T22:41:43.302Z,5.56
2019-04-10T22:44:09.773Z,5.75
2019-04-10T22:46:36.297Z,5.81
2019-04-10T22:49:02.375Z,5.81
2019-04-10T22:51:29.105Z,5.56
2019-04-10T22:53:55.637Z,5.75
2019-04-10T22:56:21.586Z,5.75
2019-04-10T22:58:47.493Z,5.56
2019-04-10T23:01:13.520Z,5.37
2019-04-10T23:03:39.469Z,5.44
2019-04-10T23:06:05.376Z,5.37
2019-04-10T23:08:31.640Z,5.25
2019-04-10T23:10:57.839Z,5.44
2019-04-10T23:13:23.799Z,5.25
2019-04-10T23:15:49.664Z,5.12
2019-04-10T23:18:15.513Z,5.12
2019-04-10T23:20:41.769Z,4.94
2019-04-10T23:23:08.561Z,5.00
2019-04-10T23:25:34.788Z,4.94
2019-04-10T23:28:01.083Z,4.69
2019-04-10T23:30:27.087Z,4.81
2019-04-10T23:32:53.537Z,4.81
2019-04-10T23:35:19.506Z,4.62
2019-04-10T23:37:45.430Z,4.75
2019-04-10T23:40:12.452Z,4.69
2019-04-10T23:42:38.415Z,4.94
2019-04-10T23:45:05.174Z,4.81
2019-04-10T23:47:31.859Z,4.75
2019-04-10T23:49:57.832Z,4.62
2019-04-10T23:52:23.662Z,5.12
2019-04-10T23:54:49.548Z,4.94
2019-04-10T23:57:15.371Z,5.00
2019-04-10T23:59:41.214Z,5.06
